Time;durP1;ratioP1;P1;durP2;ratioP2;P2;SDS_P1;SDS_P2;PMS_P1;PMS_P2;Temp;Humidity;BMP_temperature;BMP_pressure;BME280_temperature;BME280_humidity;BME280_pressure;Samples;Min_cycle;Max_cycle;Signal;HPM_P1;HPM_P2
2023/08/09 00:01:18;;;;;;;92.53;46.07;;;17.20;99.90;;;;;;4943601;29;20228;-83
2023/08/09 00:03:44;;;;;;;87.60;39.00;;;17.20;99.90;;;;;;4942951;29;20640;-84
2023/08/09 00:06:10;;;;;;;85.97;46.70;;;17.20;99.90;;;;;;4943477;29;20611;-83
2023/08/09 00:08:35;;;;;;;89.20;53.10;;;17.20;99.90;;;;;;4926484;29;20260;-83
2023/08/09 00:11:01;;;;;;;89.13;54.73;;;17.10;99.90;;;;;;4926475;29;20637;-84
2023/08/09 00:13:27;;;;;;;91.37;55.03;;;17.10;99.90;;;;;;4942726;29;20177;-83
2023/08/09 00:15:52;;;;;;;95.83;71.50;;;17.00;99.90;;;;;;4943031;29;20241;-83
2023/08/09 00:18:19;;;;;;;94.03;67.53;;;16.90;99.90;;;;;;4926142;29;20245;-83
2023/08/09 00:20:44;;;;;;;98.20;79.67;;;16.90;99.90;;;;;;4942579;29;20212;-84
2023/08/09 00:23:10;;;;;;;101.07;87.23;;;16.80;99.90;;;;;;4925632;29;20986;-84
2023/08/09 00:25:36;;;;;;;115.00;102.50;;;17.00;99.90;;;;;;4943625;29;20169;-84
2023/08/09 00:28:02;;;;;;;102.50;86.23;;;16.90;99.90;;;;;;4943330;29;20216;-84
2023/08/09 00:30:28;;;;;;;108.10;96.50;;;16.80;99.90;;;;;;4943002;29;20940;-83
2023/08/09 00:32:53;;;;;;;105.27;93.43;;;16.80;99.90;;;;;;4926041;29;20169;-84
2023/08/09 00:35:19;;;;;;;105.33;94.00;;;16.90;99.90;;;;;;4925880;29;20176;-83
2023/08/09 00:37:44;;;;;;;104.80;88.67;;;16.90;99.90;;;;;;4943336;29;20683;-84
2023/08/09 00:40:13;;;;;;;100.87;84.10;;;16.80;99.90;;;;;;4942463;29;20201;-83
2023/08/09 00:42:40;;;;;;;119.23;107.20;;;16.70;99.90;;;;;;4942389;29;20179;-82
2023/08/09 00:45:07;;;;;;;132.63;119.97;;;16.80;99.90;;;;;;4924910;29;20417;-83
2023/08/09 00:47:33;;;;;;;98.50;81.73;;;16.70;99.90;;;;;;4942530;29;20849;-82
2023/08/09 00:50:00;;;;;;;99.90;87.10;;;16.70;99.90;;;;;;4942165;29;20470;-82
2023/08/09 00:52:26;;;;;;;123.07;110.90;;;16.70;99.90;;;;;;4940836;29;20869;-82
2023/08/09 00:54:53;;;;;;;103.67;90.93;;;16.80;99.90;;;;;;4987304;23;21086;-79
2023/08/09 00:57:19;;;;;;;107.40;89.87;;;16.70;99.90;;;;;;4919759;29;20431;-78
2023/08/09 00:59:45;;;;;;;105.93;91.50;;;16.80;99.90;;;;;;4919552;29;20470;-78
2023/08/09 01:02:11;;;;;;;100.47;84.37;;;16.80;99.90;;;;;;4919661;29;20778;-78
2023/08/09 01:04:38;;;;;;;101.70;88.90;;;16.80;99.90;;;;;;4919183;29;20415;-79
2023/08/09 01:07:23;;;;;;;104.07;92.77;;;16.80;99.90;;;;;;4919337;29;20557;-79
2023/08/09 01:10:10;;;;;;;96.83;81.50;;;16.80;99.90;;;;;;4902206;29;20441;-79
2023/08/09 01:12:45;;;;;;;109.63;98.00;;;16.80;99.90;;;;;;4902177;29;20418;-79
2023/08/09 01:15:15;;;;;;;103.20;82.20;;;16.90;99.90;;;;;;4901892;29;20420;-79
2023/08/09 01:17:41;;;;;;;103.60;91.87;;;16.80;99.90;;;;;;4918867;29;20446;-79
2023/08/09 01:20:11;;;;;;;107.70;86.60;;;16.80;99.90;;;;;;4901405;29;20460;-79
2023/08/09 01:22:44;;;;;;;98.90;77.57;;;16.80;99.90;;;;;;4901517;29;20513;-79
2023/08/09 01:25:11;;;;;;;100.60;89.17;;;16.80;99.90;;;;;;4901774;29;20522;-79
2023/08/09 01:27:36;;;;;;;107.53;95.93;;;16.90;99.90;;;;;;4918647;29;20405;-79
2023/08/09 01:30:04;;;;;;;103.53;87.60;;;16.80;99.90;;;;;;4919021;29;20427;-79
2023/08/09 01:32:30;;;;;;;100.50;79.50;;;16.90;99.90;;;;;;4918594;29;20175;-79
2023/08/09 01:34:58;;;;;;;102.03;84.60;;;16.80;99.90;;;;;;4918820;29;20441;-79
2023/08/09 01:37:52;;;;;;;103.37;91.10;;;16.80;99.90;;;;;;4919579;29;20509;-79
2023/08/09 01:40:20;;;;;;;105.60;93.80;;;16.80;99.90;;;;;;4901655;29;20553;-79
2023/08/09 01:42:47;;;;;;;102.43;79.33;;;16.90;99.90;;;;;;4901588;29;20441;-80
2023/08/09 01:45:13;;;;;;;98.23;82.10;;;16.90;99.90;;;;;;4901473;29;20417;-79
2023/08/09 01:47:41;;;;;;;106.17;87.57;;;16.90;99.90;;;;;;4918649;29;20408;-79
2023/08/09 01:50:16;;;;;;;96.57;73.73;;;17.00;99.90;;;;;;4918618;29;20447;-79
2023/08/09 01:52:42;;;;;;;101.07;81.77;;;16.90;99.90;;;;;;4901802;29;20413;-79
2023/08/09 01:55:14;;;;;;;100.93;84.43;;;16.90;99.90;;;;;;4918391;29;20426;-79
2023/08/09 01:57:40;;;;;;;100.97;76.97;;;16.90;99.90;;;;;;4901438;29;20184;-78
2023/08/09 02:00:08;;;;;;;102.90;86.17;;;16.80;99.90;;;;;;4918649;29;20462;-79
2023/08/09 02:02:34;;;;;;;100.80;81.60;;;16.80;99.90;;;;;;4919023;29;20164;-78
2023/08/09 02:04:59;;;;;;;101.90;81.43;;;16.80;99.90;;;;;;4918677;29;20404;-79
2023/08/09 02:07:25;;;;;;;101.53;82.60;;;16.80;99.90;;;;;;4918885;29;20173;-79
2023/08/09 02:09:52;;;;;;;116.60;100.77;;;16.80;99.90;;;;;;4918490;29;20247;-78
2023/08/09 02:12:18;;;;;;;102.07;84.90;;;16.80;99.90;;;;;;4918015;29;20633;-79
2023/08/09 02:14:43;;;;;;;98.30;70.23;;;16.80;99.90;;;;;;4918304;29;20461;-78
2023/08/09 02:17:09;;;;;;;98.90;77.67;;;16.70;99.90;;;;;;4902271;29;20172;-79
2023/08/09 02:19:35;;;;;;;96.63;71.83;;;16.50;99.90;;;;;;4902224;29;20291;-79
2023/08/09 02:22:01;;;;;;;99.03;75.43;;;16.30;99.90;;;;;;4919632;29;20411;-79
2023/08/09 02:24:26;;;;;;;94.90;72.37;;;16.30;99.90;;;;;;4901533;29;20413;-79
2023/08/09 02:26:52;;;;;;;99.27;80.60;;;16.30;99.90;;;;;;4918660;29;20544;-78
2023/08/09 02:29:18;;;;;;;97.37;77.83;;;16.20;99.90;;;;;;4901535;29;20204;-78
2023/08/09 02:31:43;;;;;;;98.17;78.33;;;16.10;99.90;;;;;;4901513;29;20194;-79
2023/08/09 02:34:09;;;;;;;94.80;74.43;;;16.00;99.90;;;;;;4918667;29;20165;-79
2023/08/09 02:36:35;;;;;;;96.07;76.70;;;15.80;99.90;;;;;;4918321;29;20218;-78
2023/08/09 02:39:02;;;;;;;94.33;68.30;;;15.90;99.90;;;;;;4918125;29;20261;-78
2023/08/09 02:41:28;;;;;;;96.83;72.97;;;15.90;99.90;;;;;;4918378;29;20169;-79
2023/08/09 02:43:54;;;;;;;93.43;66.40;;;15.90;99.90;;;;;;4917950;29;20472;-79
2023/08/09 02:46:20;;;;;;;99.23;71.57;;;15.90;99.90;;;;;;4918519;29;20214;-79
2023/08/09 02:48:45;;;;;;;96.17;63.83;;;15.90;99.90;;;;;;4918569;29;20187;-79
2023/08/09 02:51:11;;;;;;;95.10;61.37;;;16.00;99.90;;;;;;4918430;29;20180;-80
2023/08/09 02:53:57;;;;;;;96.27;73.63;;;16.00;99.90;;;;;;4918895;29;20230;-79
2023/08/09 02:56:22;;;;;;;95.73;77.07;;;16.10;99.90;;;;;;4901116;29;20195;-79
2023/08/09 02:58:48;;;;;;;96.63;73.30;;;16.10;99.90;;;;;;4918443;29;20968;-79
2023/08/09 03:01:14;;;;;;;98.77;85.73;;;16.20;99.90;;;;;;4918543;29;20195;-80
2023/08/09 03:03:39;;;;;;;99.40;83.30;;;16.20;99.90;;;;;;4918278;29;20167;-79
2023/08/09 03:06:05;;;;;;;97.00;80.03;;;16.20;99.90;;;;;;4901100;29;20536;-79
2023/08/09 03:08:32;;;;;;;96.63;79.40;;;16.30;99.90;;;;;;4917815;29;20175;-80
2023/08/09 03:10:58;;;;;;;100.33;83.90;;;16.20;99.90;;;;;;4917597;29;20403;-80
2023/08/09 03:13:24;;;;;;;99.83;85.07;;;16.20;99.90;;;;;;4918036;29;20175;-79
2023/08/09 03:15:49;;;;;;;98.37;81.07;;;16.30;99.90;;;;;;4920858;29;20711;-79
2023/08/09 03:18:15;;;;;;;103.53;88.80;;;16.20;99.90;;;;;;4905193;29;20196;-80
2023/08/09 03:20:41;;;;;;;99.70;80.17;;;16.30;99.90;;;;;;4922055;29;20604;-80
2023/08/09 03:23:09;;;;;;;97.70;83.70;;;16.20;99.90;;;;;;4905050;29;20594;-80
2023/08/09 03:25:36;;;;;;;98.70;82.77;;;16.10;99.90;;;;;;4921752;29;20404;-80
2023/08/09 03:28:03;;;;;;;100.70;80.17;;;16.10;99.90;;;;;;4921443;29;20438;-80
2023/08/09 03:30:29;;;;;;;96.90;78.80;;;16.10;99.90;;;;;;4921484;29;20420;-80
2023/08/09 03:32:54;;;;;;;99.23;78.13;;;16.20;99.90;;;;;;4921504;29;20430;-80
2023/08/09 03:35:20;;;;;;;95.40;73.20;;;16.20;99.90;;;;;;4921905;29;20181;-80
2023/08/09 03:37:46;;;;;;;99.50;85.00;;;16.20;99.90;;;;;;4920984;29;20263;-80
2023/08/09 03:40:12;;;;;;;99.60;86.60;;;16.10;99.90;;;;;;4920935;29;20223;-80
2023/08/09 03:42:42;;;;;;;96.70;78.87;;;16.10;99.90;;;;;;4921525;29;20174;-80
2023/08/09 03:45:08;;;;;;;98.33;80.77;;;16.00;99.90;;;;;;4920873;29;20415;-80
2023/08/09 03:47:35;;;;;;;99.60;85.23;;;16.00;99.90;;;;;;4920557;29;20424;-80
2023/08/09 03:50:01;;;;;;;98.60;84.20;;;16.10;99.90;;;;;;4903921;29;20441;-80
2023/08/09 03:52:26;;;;;;;95.77;78.30;;;16.10;99.90;;;;;;4920871;29;20412;-80
2023/08/09 03:54:53;;;;;;;94.80;75.30;;;16.10;99.90;;;;;;4903187;29;20178;-80
2023/08/09 03:57:21;;;;;;;94.40;75.27;;;16.10;99.90;;;;;;4903535;29;20693;-80
2023/08/09 03:59:47;;;;;;;94.40;74.03;;;16.20;99.90;;;;;;4920079;29;20479;-80
2023/08/09 04:02:13;;;;;;;93.90;70.17;;;16.20;99.90;;;;;;4920723;29;20409;-80
2023/08/09 04:04:39;;;;;;;105.10;91.57;;;16.20;99.90;;;;;;4920438;29;20554;-80
2023/08/09 04:07:04;;;;;;;98.77;83.33;;;16.30;99.90;;;;;;4919862;29;20484;-80
2023/08/09 04:09:30;;;;;;;94.33;76.03;;;16.20;99.90;;;;;;4920342;29;20289;-80
2023/08/09 04:11:56;;;;;;;94.63;71.80;;;16.30;99.90;;;;;;4920082;29;20179;-80
2023/08/09 04:14:22;;;;;;;90.07;59.80;;;16.30;99.90;;;;;;4919919;29;20420;-80
2023/08/09 04:16:48;;;;;;;90.00;60.37;;;16.30;99.90;;;;;;4920124;29;20176;-80
2023/08/09 04:19:13;;;;;;;90.97;65.23;;;16.30;99.90;;;;;;4919993;29;20217;-80
2023/08/09 04:21:39;;;;;;;91.63;63.90;;;16.30;99.90;;;;;;4919992;29;20171;-80
2023/08/09 04:24:05;;;;;;;88.97;58.73;;;16.30;99.90;;;;;;4920112;29;20177;-80
2023/08/09 04:26:31;;;;;;;94.97;59.57;;;16.30;99.90;;;;;;4903188;29;20648;-80
2023/08/09 04:28:56;;;;;;;92.77;64.80;;;16.20;99.90;;;;;;4919856;29;20518;-80
2023/08/09 04:31:22;;;;;;;90.53;59.23;;;16.30;99.90;;;;;;4920124;29;20212;-80
2023/08/09 04:33:51;;;;;;;87.23;53.00;;;16.30;99.90;;;;;;4919921;29;20225;-80
2023/08/09 04:36:18;;;;;;;89.27;58.50;;;16.30;99.90;;;;;;4919560;29;20179;-80
2023/08/09 04:38:43;;;;;;;88.30;59.03;;;16.30;99.90;;;;;;4902645;29;20472;-80
2023/08/09 04:41:09;;;;;;;86.57;51.00;;;16.30;99.90;;;;;;4919661;29;20401;-80
2023/08/09 04:43:39;;;;;;;88.67;56.43;;;16.30;99.90;;;;;;4919581;29;20166;-80
2023/08/09 04:46:05;;;;;;;89.83;53.90;;;16.30;99.90;;;;;;4919852;29;20408;-80
2023/08/09 04:48:31;;;;;;;90.13;62.53;;;16.30;99.90;;;;;;4919848;29;20476;-80
2023/08/09 04:50:56;;;;;;;90.27;57.00;;;16.30;99.90;;;;;;4919941;29;20290;-80
2023/08/09 04:53:22;;;;;;;89.73;60.90;;;16.30;99.90;;;;;;4919196;29;20173;-80
2023/08/09 04:55:48;;;;;;;90.33;60.67;;;16.40;99.90;;;;;;4919606;29;20232;-80
2023/08/09 04:58:13;;;;;;;97.20;68.20;;;16.40;99.90;;;;;;4919312;29;20433;-80
2023/08/09 05:00:39;;;;;;;90.07;62.27;;;16.40;99.90;;;;;;4902177;29;20662;-80
2023/08/09 05:03:05;;;;;;;86.67;52.33;;;16.50;99.90;;;;;;4919627;29;20169;-80
2023/08/09 05:05:31;;;;;;;86.83;53.07;;;16.60;99.90;;;;;;4902089;29;20165;-80
2023/08/09 05:07:57;;;;;;;84.77;47.47;;;16.60;99.90;;;;;;4919170;29;20200;-80
2023/08/09 05:10:23;;;;;;;86.17;47.73;;;16.60;99.90;;;;;;4919310;29;20834;-81
2023/08/09 05:12:48;;;;;;;88.10;47.37;;;16.70;99.90;;;;;;4919453;29;20489;-83
2023/08/09 05:15:14;;;;;;;86.13;46.50;;;16.70;99.90;;;;;;4902172;29;20176;-81
2023/08/09 05:17:40;;;;;;;85.00;43.03;;;16.70;99.90;;;;;;4918925;29;20222;-81
2023/08/09 05:20:07;;;;;;;90.87;56.20;;;16.80;99.90;;;;;;4901858;29;20207;-81
2023/08/09 05:22:33;;;;;;;83.20;41.90;;;16.80;99.90;;;;;;4919309;29;20244;-81
2023/08/09 05:24:59;;;;;;;77.47;24.83;;;16.90;99.90;;;;;;4902009;29;20406;-82
2023/08/09 05:27:25;;;;;;;77.20;27.00;;;17.10;99.90;;;;;;4918739;29;20866;-81
2023/08/09 05:29:50;;;;;;;78.67;28.60;;;17.10;99.90;;;;;;4918877;29;20457;-81
2023/08/09 05:32:16;;;;;;;76.37;22.87;;;17.00;99.90;;;;;;4918670;29;20170;-81
2023/08/09 05:34:42;;;;;;;78.97;26.97;;;17.00;99.90;;;;;;4918930;29;20177;-81
2023/08/09 05:37:08;;;;;;;79.87;29.43;;;16.90;99.90;;;;;;4919605;29;20584;-81
2023/08/09 05:39:33;;;;;;;76.90;25.90;;;16.90;99.90;;;;;;4918645;29;20257;-81
2023/08/09 05:41:59;;;;;;;77.67;26.70;;;17.00;99.90;;;;;;4918730;29;20248;-81
2023/08/09 05:44:26;;;;;;;78.60;28.67;;;17.00;99.90;;;;;;4918462;29;20230;-81
2023/08/09 05:46:52;;;;;;;79.43;29.43;;;17.00;99.90;;;;;;4918864;29;20170;-81
2023/08/09 05:49:18;;;;;;;78.70;29.03;;;17.10;99.90;;;;;;4918701;29;20431;-80
2023/08/09 05:51:44;;;;;;;79.50;27.97;;;17.10;99.90;;;;;;4918530;29;20178;-81
2023/08/09 05:54:10;;;;;;;79.73;30.50;;;17.20;99.90;;;;;;4918436;29;20413;-81
2023/08/09 05:56:35;;;;;;;77.80;27.73;;;17.20;99.90;;;;;;4918379;29;20188;-81
2023/08/09 05:59:01;;;;;;;78.37;28.47;;;17.20;99.90;;;;;;4918516;29;20208;-81
2023/08/09 06:01:29;;;;;;;83.10;32.53;;;17.30;99.90;;;;;;4918252;29;20174;-81
2023/08/09 06:03:55;;;;;;;81.30;33.43;;;17.30;99.90;;;;;;4901540;29;20565;-81
2023/08/09 06:06:21;;;;;;;79.43;30.90;;;17.30;99.90;;;;;;4918360;29;20410;-81
2023/08/09 06:08:47;;;;;;;80.37;32.40;;;17.20;99.90;;;;;;4918202;29;20429;-81
2023/08/09 06:11:13;;;;;;;84.23;32.40;;;17.20;99.90;;;;;;4918391;29;20417;-81
2023/08/09 06:13:39;;;;;;;80.47;34.77;;;17.20;99.90;;;;;;4918124;29;20534;-81
2023/08/09 06:16:04;;;;;;;79.83;34.63;;;17.20;99.90;;;;;;4917992;29;20421;-81
2023/08/09 06:18:30;;;;;;;82.07;38.47;;;17.30;99.90;;;;;;4918449;29;20725;-80
2023/08/09 06:20:56;;;;;;;77.20;26.33;;;17.20;99.90;;;;;;4918863;29;20386;-81
2023/08/09 06:23:22;;;;;;;77.07;25.63;;;17.20;99.90;;;;;;4918581;29;20242;-82
2023/08/09 06:25:51;;;;;;;73.97;17.73;;;17.30;99.90;;;;;;4918441;29;20165;-81
2023/08/09 06:28:17;;;;;;;74.97;19.23;;;17.40;99.90;;;;;;4918793;29;20401;-81
2023/08/09 06:30:43;;;;;;;72.83;13.57;;;17.50;99.90;;;;;;4901054;29;20512;-81
2023/08/09 06:33:09;;;;;;;72.43;13.33;;;17.60;99.90;;;;;;4918065;29;20441;-81
2023/08/09 06:35:37;;;;;;;73.00;13.60;;;17.70;99.90;;;;;;4918024;29;20420;-81
2023/08/09 06:38:03;;;;;;;70.80;10.30;;;17.70;99.90;;;;;;4900702;29;20173;-81
2023/08/09 06:40:29;;;;;;;70.80;8.30;;;17.70;99.90;;;;;;4917700;29;20489;-81
2023/08/09 06:42:58;;;;;;;70.90;8.53;;;17.70;99.90;;;;;;4900639;29;20172;-81
2023/08/09 06:45:23;;;;;;;69.60;6.47;;;17.60;99.90;;;;;;4917412;29;20410;-81
2023/08/09 06:47:49;;;;;;;74.10;12.20;;;17.70;99.90;;;;;;4917516;29;20811;-81
2023/08/09 06:50:14;;;;;;;72.13;10.90;;;17.80;99.90;;;;;;4918632;29;20531;-81
2023/08/09 06:52:40;;;;;;;71.70;8.50;;;17.80;99.90;;;;;;4921511;29;20161;-81
2023/08/09 06:55:07;;;;;;;71.10;6.50;;;17.90;99.90;;;;;;5001832;23;20231;-82
2023/08/09 06:57:34;;;;;;;69.97;6.07;;;17.80;99.90;;;;;;4926096;29;20157;-83
2023/08/09 07:00:00;;;;;;;71.60;10.07;;;17.70;99.90;;;;;;4925547;29;20459;-82
2023/08/09 07:02:26;;;;;;;71.43;9.50;;;17.50;99.90;;;;;;4943120;29;20464;-82
2023/08/09 07:04:54;;;;;;;70.37;7.57;;;17.80;99.90;;;;;;4943399;29;20404;-82
2023/08/09 07:07:23;;;;;;;70.93;6.80;;;17.90;99.90;;;;;;4944789;29;20397;-83
2023/08/09 07:09:49;;;;;;;71.73;7.50;;;17.90;99.90;;;;;;4946339;29;20456;-83
2023/08/09 07:12:15;;;;;;;71.20;7.07;;;18.00;99.90;;;;;;4945697;29;21012;-82
2023/08/09 07:14:40;;;;;;;70.10;6.80;;;18.20;99.90;;;;;;4945708;29;20440;-83
2023/08/09 07:17:07;;;;;;;71.07;7.77;;;18.30;99.90;;;;;;4945272;29;20172;-83
2023/08/09 07:19:33;;;;;;;71.70;7.17;;;18.30;99.90;;;;;;4944953;29;20546;-82
2023/08/09 07:21:58;;;;;;;71.20;7.60;;;18.40;99.90;;;;;;4944703;29;20412;-83
2023/08/09 07:24:24;;;;;;;72.10;8.30;;;18.60;99.90;;;;;;4944554;29;20164;-83
2023/08/09 07:26:50;;;;;;;71.00;7.03;;;18.50;99.90;;;;;;4944875;29;20605;-83
2023/08/09 07:29:15;;;;;;;71.27;7.60;;;18.60;99.90;;;;;;4929160;29;20667;-83
2023/08/09 07:31:41;;;;;;;71.57;7.27;;;18.60;99.90;;;;;;4927411;29;20177;-83
2023/08/09 07:34:06;;;;;;;70.37;6.90;;;18.60;99.90;;;;;;4927654;29;20188;-82
2023/08/09 07:36:32;;;;;;;71.60;8.83;;;18.70;99.90;;;;;;4944662;29;20169;-82
2023/08/09 07:38:58;;;;;;;72.40;9.23;;;18.70;99.90;;;;;;4944649;29;20197;-83
2023/08/09 07:41:25;;;;;;;71.70;8.53;;;18.50;99.90;;;;;;4944691;29;20165;-82
2023/08/09 07:43:50;;;;;;;73.43;9.13;;;18.40;99.90;;;;;;4944725;29;20412;-82
2023/08/09 07:46:16;;;;;;;72.47;9.40;;;18.30;99.90;;;;;;4944236;29;20400;-82
2023/08/09 07:48:41;;;;;;;73.03;9.87;;;18.20;99.90;;;;;;4944788;29;20301;-83
2023/08/09 07:51:11;;;;;;;71.60;9.70;;;18.10;99.90;;;;;;4945442;29;20171;-82
2023/08/09 07:53:40;;;;;;;74.73;12.23;;;18.00;99.90;;;;;;4944791;29;20645;-82
2023/08/09 07:56:06;;;;;;;71.33;8.10;;;17.90;99.90;;;;;;4944178;29;20548;-82
2023/08/09 07:58:32;;;;;;;72.27;8.80;;;17.80;99.90;;;;;;4944152;29;20444;-82
2023/08/09 08:00:58;;;;;;;72.77;10.20;;;17.70;99.90;;;;;;4943338;29;20400;-82
2023/08/09 08:03:24;;;;;;;72.17;8.20;;;17.70;99.90;;;;;;4944131;29;20188;-82
2023/08/09 08:05:50;;;;;;;73.63;7.20;;;17.60;99.90;;;;;;4944537;29;20416;-81
2023/08/09 08:08:17;;;;;;;71.67;8.00;;;17.60;99.90;;;;;;4927235;29;20664;-82
2023/08/09 08:10:43;;;;;;;72.00;8.90;;;17.60;99.90;;;;;;4927112;29;20468;-82
2023/08/09 08:13:09;;;;;;;73.77;9.40;;;17.50;99.90;;;;;;4943419;29;20446;-84
2023/08/09 08:15:36;;;;;;;72.60;7.77;;;17.60;99.90;;;;;;4942752;29;20411;-82
2023/08/09 08:18:06;;;;;;;72.47;8.80;;;17.70;99.90;;;;;;4925458;29;20483;-82
2023/08/09 08:20:32;;;;;;;73.67;10.63;;;17.80;99.90;;;;;;4925608;29;20535;-82
2023/08/09 08:22:58;;;;;;;73.77;13.20;;;17.90;99.90;;;;;;4943068;29;20804;-83
2023/08/09 08:25:25;;;;;;;72.97;11.10;;;17.90;99.90;;;;;;4943573;29;20943;-83
2023/08/09 08:27:51;;;;;;;76.80;22.07;;;18.00;99.90;;;;;;4925697;29;20467;-82
2023/08/09 08:30:19;;;;;;;77.30;20.87;;;18.00;99.90;;;;;;4925267;29;20509;-82
2023/08/09 08:32:46;;;;;;;76.60;20.77;;;18.10;99.90;;;;;;4942758;29;20385;-82
2023/08/09 08:35:20;;;;;;;77.17;21.10;;;18.20;99.90;;;;;;4941887;29;20464;-82
2023/08/09 08:37:47;;;;;;;76.60;17.63;;;18.30;99.90;;;;;;4925514;29;20456;-82
2023/08/09 08:40:20;;;;;;;76.10;19.17;;;18.30;99.90;;;;;;4941962;29;20478;-82
2023/08/09 08:42:50;;;;;;;76.67;20.40;;;18.10;83.80;;;;;;4942307;29;20393;-82
2023/08/09 08:45:19;;;;;;;75.70;20.00;;;18.20;87.80;;;;;;4941639;29;20469;-82
2023/08/09 08:47:46;;;;;;;74.27;16.13;;;18.30;95.00;;;;;;4941960;29;20405;-82
2023/08/09 08:50:13;;;;;;;76.10;18.00;;;18.40;88.20;;;;;;4942148;29;20439;-82
2023/08/09 08:52:42;;;;;;;73.50;14.07;;;18.40;82.50;;;;;;4942273;29;20411;-82
2023/08/09 08:55:10;;;;;;;76.27;14.50;;;18.40;72.30;;;;;;4941948;29;20939;-82
2023/08/09 08:57:39;;;;;;;76.57;20.30;;;18.60;77.10;;;;;;4942225;29;20393;-82
2023/08/09 09:02:33;;;;;;;74.23;13.40;;;18.60;59.80;;;;;;4920410;29;20461;-82
2023/08/09 09:04:59;;;;;;;75.47;18.77;;;18.70;63.10;;;;;;4921783;29;20401;-82
2023/08/09 09:07:25;;;;;;;76.77;20.87;;;18.80;61.90;;;;;;4921611;29;20394;-82
2023/08/09 09:10:03;;;;;;;78.57;19.37;;;19.00;45.70;;;;;;5028159;23;20274;-82
2023/08/09 09:12:29;;;;;;;75.57;19.57;;;19.10;35.70;;;;;;4940755;29;20381;-82
2023/08/09 09:17:22;;;;;;;79.77;20.00;;;19.20;41.30;;;;;;4921306;29;20205;-82
2023/08/09 09:19:50;;;;;;;74.87;16.10;;;19.30;29.80;;;;;;4923077;29;20468;-82
2023/08/09 09:22:30;;;;;;;78.27;18.77;;;19.30;25.30;;;;;;4905737;29;20546;-82
2023/08/09 09:24:59;;;;;;;76.20;19.87;;;19.30;27.60;;;;;;4922149;29;20401;-82
2023/08/09 09:27:33;;;;;;;74.67;15.53;;;19.40;28.40;;;;;;4922456;29;20420;-82
2023/08/09 09:30:12;;;;;;;75.67;11.33;;;19.40;14.30;;;;;;4922513;29;20492;-82
2023/08/09 09:32:54;;;;;;;74.47;13.43;;;19.40;10.50;;;;;;4922466;29;20394;-82
2023/08/09 09:35:28;;;;;;;74.00;8.17;;;19.50;13.00;;;;;;4905141;29;20487;-82
2023/08/09 09:37:55;;;;;;;72.27;6.53;;;19.50;1.00;;;;;;4922370;29;20481;-82
2023/08/09 09:40:25;;;;;;;70.80;6.50;;;19.50;1.00;;;;;;4922042;29;20465;-82
2023/08/09 09:42:56;;;;;;;71.50;5.93;;;19.60;1.00;;;;;;4922793;29;20950;-82
2023/08/09 09:45:28;;;;;;;71.13;5.23;;;19.60;1.00;;;;;;4905355;29;20405;-82
2023/08/09 09:47:56;;;;;;;70.90;5.20;;;19.70;1.00;;;;;;4922267;29;20494;-82
2023/08/09 09:50:23;;;;;;;73.00;5.20;;;19.90;1.00;;;;;;4905673;29;20480;-82
2023/08/09 09:52:50;;;;;;;70.30;5.00;;;20.00;1.00;;;;;;4906141;29;21035;-82
2023/08/09 09:55:20;;;;;;;70.90;5.60;;;20.20;1.00;;;;;;4922935;29;20485;-82
2023/08/09 09:57:49;;;;;;;75.13;4.90;;;20.20;1.00;;;;;;4905123;29;20414;-82
2023/08/09 10:00:15;;;;;;;69.97;4.77;;;20.10;1.00;;;;;;4922185;29;20531;-82
2023/08/09 10:02:47;;;;;;;72.30;5.57;;;19.90;1.00;;;;;;4922272;29;20902;-82
2023/08/09 10:05:22;;;;;;;73.90;5.80;;;20.00;1.00;;;;;;4922043;29;20482;-83
2023/08/09 10:07:50;;;;;;;70.87;4.80;;;20.20;1.00;;;;;;4922115;29;20391;-82
2023/08/09 10:10:17;;;;;;;70.87;5.63;;;20.40;1.00;;;;;;4921813;29;20469;-83
2023/08/09 10:13:03;;;;;;;71.97;5.80;;;20.60;1.00;;;;;;4921366;29;20768;-82
2023/08/09 10:16:10;;;;;;;71.77;6.07;;;20.70;1.00;;;;;;4921710;29;20441;-82
2023/08/09 10:18:46;;;;;;;71.20;5.00;;;20.90;1.00;;;;;;4921840;29;20433;-82
2023/08/09 10:21:14;;;;;;;71.77;6.13;;;21.10;1.00;;;;;;4921332;29;20917;-83
2023/08/09 10:24:17;;;;;;;72.20;7.00;;;21.20;1.00;;;;;;4921577;29;20416;-82
2023/08/09 10:26:45;;;;;;;72.80;6.77;;;21.40;1.00;;;;;;4903970;29;20417;-82
2023/08/09 10:29:23;;;;;;;72.03;7.33;;;21.70;1.00;;;;;;4921754;29;20430;-82
2023/08/09 10:32:02;;;;;;;72.27;6.10;;;22.00;1.00;;;;;;4921702;29;20391;-82
2023/08/09 10:34:42;;;;;;;71.60;6.37;;;22.30;1.00;;;;;;4921277;29;20398;-82
2023/08/09 10:37:10;;;;;;;75.00;6.00;;;22.60;1.00;;;;;;4921723;29;20382;-82
2023/08/09 10:39:36;;;;;;;72.87;6.13;;;22.90;1.00;;;;;;4921335;29;20989;-82
2023/08/09 10:42:10;;;;;;;72.60;8.27;;;23.10;1.00;;;;;;4904388;29;20417;-82
2023/08/09 10:44:42;;;;;;;74.47;14.27;;;23.50;1.00;;;;;;4922343;29;20389;-82
2023/08/09 10:47:20;;;;;;;77.77;22.77;;;23.60;1.00;;;;;;4921761;29;20400;-82
2023/08/09 10:49:48;;;;;;;77.60;21.83;;;23.50;1.00;;;;;;4921798;29;20949;-82
2023/08/09 10:52:15;;;;;;;75.27;13.43;;;23.60;1.00;;;;;;4921556;29;20401;-82
2023/08/09 10:54:41;;;;;;;79.93;28.47;;;23.80;1.00;;;;;;4921572;29;20414;-82
2023/08/09 10:57:11;;;;;;;75.70;16.80;;;23.70;1.00;;;;;;4921477;29;20461;-82
2023/08/09 10:59:38;;;;;;;78.90;27.37;;;23.80;1.00;;;;;;4921347;29;20716;-82
2023/08/09 11:02:07;;;;;;;77.87;24.90;;;23.80;1.00;;;;;;4920896;29;20917;-82
2023/08/09 11:04:33;;;;;;;80.40;16.37;;;23.90;1.00;;;;;;4921629;29;20413;-82
2023/08/09 11:07:00;;;;;;;74.40;11.87;;;23.90;1.00;;;;;;4904219;29;20956;-82
2023/08/09 11:09:32;;;;;;;74.20;11.90;;;23.70;1.00;;;;;;4921442;29;20497;-82
2023/08/09 11:11:57;;;;;;;72.97;9.27;;;23.60;1.00;;;;;;4920906;29;20482;-82
2023/08/09 11:14:24;;;;;;;77.80;20.97;;;23.40;1.00;;;;;;4921269;29;20913;-82
2023/08/09 11:16:52;;;;;;;75.27;16.70;;;23.30;1.00;;;;;;4903574;29;20189;-82
2023/08/09 11:19:25;;;;;;;78.17;22.63;;;23.20;1.00;;;;;;4920467;29;20469;-82
2023/08/09 11:21:54;;;;;;;79.83;18.70;;;23.10;1.00;;;;;;4904190;29;20442;-82
2023/08/09 11:24:22;;;;;;;79.17;21.40;;;23.10;1.00;;;;;;4920584;29;20402;-82
2023/08/09 11:26:53;;;;;;;78.87;19.90;;;23.00;1.00;;;;;;4921287;29;20974;-82
2023/08/09 11:29:21;;;;;;;77.67;17.57;;;23.00;1.00;;;;;;4921312;29;20433;-82
2023/08/09 11:31:48;;;;;;;76.80;15.47;;;22.90;1.00;;;;;;4920850;29;20401;-82
2023/08/09 11:34:16;;;;;;;78.90;21.33;;;22.70;1.00;;;;;;4903968;29;20510;-82
2023/08/09 11:36:43;;;;;;;78.03;19.53;;;22.70;1.00;;;;;;4905621;29;20425;-82
2023/08/09 11:39:10;;;;;;;76.00;20.27;;;22.70;1.00;;;;;;4924768;29;20464;-81
2023/08/09 11:41:43;;;;;;;78.70;23.30;;;22.60;1.00;;;;;;4924965;29;20438;-82
2023/08/09 11:44:11;;;;;;;77.70;25.07;;;22.60;1.00;;;;;;4924064;29;20405;-82
2023/08/09 11:46:37;;;;;;;77.90;26.17;;;22.90;1.00;;;;;;4923756;29;20496;-81
2023/08/09 11:49:04;;;;;;;78.27;24.20;;;23.00;1.00;;;;;;4924341;29;20436;-82
2023/08/09 11:51:34;;;;;;;78.80;25.10;;;23.10;1.00;;;;;;4924368;29;20415;-82
2023/08/09 11:54:00;;;;;;;73.97;14.07;;;22.80;1.00;;;;;;4924484;29;20397;-82
2023/08/09 11:56:31;;;;;;;73.30;13.23;;;22.80;1.00;;;;;;4924748;29;20415;-82
2023/08/09 11:59:00;;;;;;;77.80;21.47;;;22.80;1.00;;;;;;4924669;29;20817;-82
2023/08/09 12:01:31;;;;;;;76.90;15.50;;;22.80;1.00;;;;;;4906632;29;20411;-82
2023/08/09 12:03:59;;;;;;;76.00;20.80;;;23.00;1.00;;;;;;4924474;29;20413;-82
2023/08/09 12:06:45;;;;;;;75.07;7.97;;;23.50;1.00;;;;;;4923611;29;20405;-82
2023/08/09 12:09:35;;;;;;;80.10;20.97;;;23.90;1.00;;;;;;4923374;29;20425;-82
2023/08/09 12:12:06;;;;;;;74.07;10.60;;;23.90;1.00;;;;;;4906410;29;20417;-82
2023/08/09 12:14:33;;;;;;;72.77;9.40;;;23.80;1.00;;;;;;4924033;29;20458;-82
2023/08/09 12:16:59;;;;;;;72.13;6.30;;;23.80;1.00;;;;;;4923496;29;20437;-82
2023/08/09 12:19:25;;;;;;;74.03;13.37;;;23.80;1.00;;;;;;4906390;29;20830;-82
2023/08/09 12:21:51;;;;;;;79.00;23.83;;;23.60;1.00;;;;;;4923531;29;20165;-82
2023/08/09 12:24:17;;;;;;;71.50;6.30;;;23.60;1.00;;;;;;4923208;29;20436;-82
2023/08/09 12:26:42;;;;;;;72.17;7.10;;;23.70;1.00;;;;;;4923161;29;20192;-81
2023/08/09 12:29:11;;;;;;;70.47;5.20;;;23.90;1.00;;;;;;4923362;29;20189;-82
2023/08/09 12:31:38;;;;;;;72.27;5.70;;;24.00;1.00;;;;;;4923162;29;20180;-82
2023/08/09 12:34:04;;;;;;;72.03;4.37;;;23.90;1.00;;;;;;4923748;29;20409;-82
2023/08/09 12:36:30;;;;;;;70.87;5.20;;;23.80;1.00;;;;;;4923354;29;20406;-82
2023/08/09 12:38:59;;;;;;;70.70;4.57;;;23.80;1.00;;;;;;4923076;29;20516;-81